createdAt,value
2022-09-11T00:00:52.962Z,98272.25
2022-09-11T00:03:21.947Z,98267.91
2022-09-11T00:05:49.116Z,98270.47
2022-09-11T00:08:18.251Z,98262.19
2022-09-11T00:10:48.256Z,98267.78
2022-09-11T00:13:21.503Z,98261.69
2022-09-11T00:15:51.887Z,98268.53
2022-09-11T00:18:24.084Z,98263.09
2022-09-11T00:20:53.320Z,98270.94
2022-09-11T00:23:21.215Z,98266.84
2022-09-11T00:25:48.876Z,98273.16
2022-09-11T00:28:17.845Z,98273.00
2022-09-11T00:30:44.917Z,98276.66
2022-09-11T00:33:12.616Z,98266.69
2022-09-11T00:35:40.379Z,98268.00
2022-09-11T00:38:08.783Z,98273.31
2022-09-11T00:40:46.410Z,98269.06
2022-09-11T00:43:17.606Z,98269.34
2022-09-11T00:45:47.383Z,98272.72
2022-09-11T00:48:20.164Z,98233.66
2022-09-11T00:50:48.102Z,98261.63
2022-09-11T00:53:17.856Z,98254.22
2022-09-11T00:55:50.661Z,98260.09
2022-09-11T00:58:21.281Z,98263.94
2022-09-11T01:00:48.596Z,98265.38
2022-09-11T01:03:15.215Z,98267.00
2022-09-11T01:05:43.690Z,98266.31
2022-09-11T01:08:10.408Z,98268.34
2022-09-11T01:10:40.065Z,98262.94
2022-09-11T01:13:18.570Z,98263.22
2022-09-11T01:16:26.156Z,98265.78
2022-09-11T01:19:01.261Z,98267.97
2022-09-11T01:21:34.645Z,98265.69
2022-09-11T01:24:01.237Z,98264.59
2022-09-11T01:26:42.793Z,98258.72
2022-09-11T01:29:16.042Z,98263.38
2022-09-11T01:32:09.858Z,98266.41
2022-09-11T01:34:53.557Z,98267.53
2022-09-11T01:37:28.622Z,98265.13
2022-09-11T01:40:03.424Z,98266.78
2022-09-11T01:42:34.819Z,98266.66
2022-09-11T01:45:04.455Z,98262.91
2022-09-11T01:47:34.985Z,98261.44
2022-09-11T01:50:07.148Z,98264.41
2022-09-11T01:52:41.251Z,98263.47
2022-09-11T01:55:19.065Z,98263.91
2022-09-11T01:57:57.123Z,98257.00
2022-09-11T02:00:23.927Z,98260.97
2022-09-11T02:02:59.792Z,98261.31
2022-09-11T02:05:36.700Z,98256.63
2022-09-11T02:08:18.538Z,98256.78
2022-09-11T02:10:53.169Z,98266.94
2022-09-11T02:13:30.528Z,98263.03
2022-09-11T02:16:05.511Z,98261.25
2022-09-11T02:18:40.483Z,98268.25
2022-09-11T02:21:07.267Z,98267.72
2022-09-11T02:23:33.765Z,98272.91
2022-09-11T02:26:02.455Z,98270.41
2022-09-11T02:28:30.192Z,98270.84
2022-09-11T02:30:57.112Z,98274.94
2022-09-11T02:33:36.506Z,98267.00
2022-09-11T02:36:39.203Z,98264.53
2022-09-11T02:39:38.406Z,98264.13
2022-09-11T02:42:17.238Z,98268.75
2022-09-11T02:45:00.466Z,98276.03
2022-09-11T02:47:45.589Z,98271.25
2022-09-11T02:50:22.148Z,98271.25
2022-09-11T02:53:02.468Z,98272.63
2022-09-11T02:55:36.439Z,98268.66
2022-09-11T02:58:15.712Z,98267.84
2022-09-11T03:00:44.378Z,98279.06
2022-09-11T03:03:10.990Z,98277.28
2022-09-11T03:05:40.227Z,98270.03
2022-09-11T03:08:07.721Z,98275.66
2022-09-11T03:10:34.680Z,98272.63
2022-09-11T03:13:01.174Z,98274.69
2022-09-11T03:15:31.195Z,98278.31
2022-09-11T03:17:57.857Z,98281.72
2022-09-11T03:20:24.378Z,98279.41
2022-09-11T03:22:51.036Z,98285.38
2022-09-11T03:25:17.783Z,98282.78
2022-09-11T03:27:44.486Z,98279.81
2022-09-11T03:30:13.240Z,98285.94
2022-09-11T03:32:39.862Z,98279.41
2022-09-11T03:35:06.814Z,98278.72
2022-09-11T03:37:33.745Z,98266.56
2022-09-11T03:40:01.641Z,98281.97
2022-09-11T03:42:28.634Z,98284.13
2022-09-11T03:44:55.259Z,98293.16
2022-09-11T03:47:22.263Z,98292.78
2022-09-11T03:49:48.905Z,98281.72
2022-09-11T03:52:15.977Z,98284.78
2022-09-11T03:54:42.598Z,98291.50
2022-09-11T03:57:09.937Z,98291.44
2022-09-11T03:59:39.164Z,98288.00
2022-09-11T04:02:05.847Z,98272.72
2022-09-11T04:04:33.021Z,98287.47
2022-09-11T04:06:59.845Z,98261.44
2022-09-11T04:09:27.870Z,98293.03
2022-09-11T04:11:54.712Z,98291.41
2022-09-11T04:14:25.565Z,98294.03
2022-09-11T04:16:55.701Z,98290.59
2022-09-11T04:19:23.737Z,98287.44
2022-09-11T04:21:50.511Z,98284.75
2022-09-11T04:24:17.233Z,98290.88
2022-09-11T04:26:46.767Z,98287.56
2022-09-11T04:29:22.492Z,98288.19
2022-09-11T04:31:49.615Z,98295.44
2022-09-11T04:34:17.316Z,98302.91
2022-09-11T04:36:44.426Z,98301.31
2022-09-11T04:39:14.873Z,98304.16
2022-09-11T04:41:44.481Z,98308.97
2022-09-11T04:44:11.295Z,98303.06
2022-09-11T04:46:42.823Z,98313.13
2022-09-11T04:49:11.555Z,98319.78
2022-09-11T04:51:40.449Z,98314.38
2022-09-11T04:54:14.296Z,98322.06
2022-09-11T04:56:41.244Z,98322.22
2022-09-11T04:59:19.481Z,98321.34
2022-09-11T05:01:52.270Z,98333.34
2022-09-11T05:04:22.846Z,98333.09
2022-09-11T05:06:51.008Z,98329.25
2022-09-11T05:09:19.578Z,98330.00
2022-09-11T05:11:48.322Z,98331.59
2022-09-11T05:14:16.054Z,98333.00
2022-09-11T05:16:45.465Z,98343.69
2022-09-11T05:19:14.161Z,98341.91
2022-09-11T05:21:44.055Z,98344.22
2022-09-11T05:24:10.726Z,98348.03
2022-09-11T05:26:37.949Z,98349.69
2022-09-11T05:29:10.501Z,98355.44
2022-09-11T05:31:43.357Z,98350.00
2022-09-11T05:34:12.665Z,98352.78
2022-09-11T05:36:41.441Z,98358.47
2022-09-11T05:39:10.395Z,98363.69
2022-09-11T05:41:37.682Z,98362.75
2022-09-11T05:44:04.433Z,98365.78
2022-09-11T05:46:32.523Z,98361.00
2022-09-11T05:49:02.566Z,98374.56
2022-09-11T05:51:29.651Z,98377.16
2022-09-11T05:53:58.605Z,98378.41
2022-09-11T05:56:26.337Z,98377.34
2022-09-11T05:58:58.620Z,98372.16
2022-09-11T06:01:32.326Z,98377.75
2022-09-11T06:04:12.364Z,98378.00
2022-09-11T06:06:41.412Z,98379.97
2022-09-11T06:09:08.241Z,98398.56
2022-09-11T06:11:35.208Z,98384.34
2022-09-11T06:14:02.566Z,98394.88
2022-09-11T06:16:31.433Z,98391.72
2022-09-11T06:19:04.778Z,98390.94
2022-09-11T06:21:31.681Z,98396.72
2022-09-11T06:24:20.486Z,98391.28
2022-09-11T06:26:47.102Z,98402.94
2022-09-11T06:29:16.082Z,98398.56
2022-09-11T06:31:48.123Z,98402.28
2022-09-11T06:34:15.872Z,98393.78
2022-09-11T06:36:44.614Z,98391.06
2022-09-11T06:39:12.798Z,98378.47
2022-09-11T06:41:39.356Z,98386.84
2022-09-11T06:44:11.458Z,98383.69
2022-09-11T06:46:40.309Z,98381.91
2022-09-11T06:49:09.049Z,98391.34
2022-09-11T06:51:55.577Z,98384.09
2022-09-11T06:54:22.251Z,98391.50
2022-09-11T06:56:48.747Z,98385.88
2022-09-11T06:59:16.056Z,98386.44
2022-09-11T07:01:44.402Z,98389.84
2022-09-11T07:04:13.089Z,98387.81
2022-09-11T07:06:41.390Z,98383.28
2022-09-11T07:09:11.649Z,98377.78
2022-09-11T07:11:46.899Z,98385.88
2022-09-11T07:14:13.895Z,98391.50
2022-09-11T07:16:42.581Z,98391.91
2022-09-11T07:19:12.250Z,98382.06
2022-09-11T07:21:39.713Z,98375.47
2022-09-11T07:24:07.560Z,98378.88
2022-09-11T07:26:38.491Z,98372.44
2022-09-11T07:29:12.790Z,98376.25
2022-09-11T07:31:39.675Z,98366.78
2022-09-11T07:34:06.598Z,98368.16
2022-09-11T07:36:34.837Z,98373.63
2022-09-11T07:39:04.527Z,98359.78
2022-09-11T07:41:36.663Z,98369.47
2022-09-11T07:44:10.473Z,98372.19
2022-09-11T07:46:40.269Z,98363.53
2022-09-11T07:49:10.047Z,98367.91
2022-09-11T07:51:37.983Z,98390.34
2022-09-11T07:54:07.002Z,98385.13
2022-09-11T07:56:34.845Z,98385.13
2022-09-11T07:59:07.764Z,98389.75
2022-09-11T08:01:35.459Z,98383.28
2022-09-11T08:04:05.799Z,98387.38
2022-09-11T08:06:35.701Z,98393.81
2022-09-11T08:09:07.759Z,98392.00
2022-09-11T08:11:38.806Z,98401.31
2022-09-11T08:14:05.497Z,98385.91
2022-09-11T08:16:32.155Z,98393.50
2022-09-11T08:19:00.125Z,98393.47
2022-09-11T08:21:26.673Z,98396.16
2022-09-11T08:23:54.575Z,98393.94
2022-09-11T08:26:23.701Z,98395.41
2022-09-11T08:28:54.640Z,98394.16
2022-09-11T08:31:26.856Z,98388.50
2022-09-11T08:33:56.031Z,98398.31
2022-09-11T08:36:23.831Z,98387.72
2022-09-11T08:38:52.655Z,98385.88
2022-09-11T08:41:35.147Z,98390.88
2022-09-11T08:44:12.679Z,98381.91
2022-09-11T08:46:44.155Z,98390.94
2022-09-11T08:49:15.892Z,98397.00
2022-09-11T08:51:44.731Z,98398.03
2022-09-11T08:54:33.435Z,98393.50
2022-09-11T08:57:08.520Z,98389.09
2022-09-11T08:59:50.328Z,98396.03
2022-09-11T09:02:39.094Z,98393.72
2022-09-11T09:05:25.075Z,98393.63
2022-09-11T09:08:10.106Z,98401.38
2022-09-11T09:10:53.160Z,98398.50
2022-09-11T09:13:43.245Z,98391.19
2022-09-11T09:16:18.904Z,98389.38
2022-09-11T09:18:55.993Z,98387.94
2022-09-11T09:21:35.998Z,98360.81
2022-09-11T09:24:08.689Z,98385.41
2022-09-11T09:26:39.980Z,98381.84
2022-09-11T09:29:14.809Z,98383.19
2022-09-11T09:31:44.355Z,98383.34
2022-09-11T09:34:19.800Z,98367.69
2022-09-11T09:36:47.417Z,98368.53
2022-09-11T09:39:16.369Z,98370.53
2022-09-11T09:42:16.712Z,98369.06
2022-09-11T09:45:01.966Z,98359.75
2022-09-11T09:47:29.777Z,98353.22
2022-09-11T09:49:58.343Z,98344.72
2022-09-11T09:52:34.224Z,98349.13
2022-09-11T09:55:02.817Z,98344.09
2022-09-11T09:57:32.570Z,98343.13
2022-09-11T10:00:15.899Z,98343.59
2022-09-11T10:02:54.695Z,98340.00
2022-09-11T10:05:25.358Z,98345.03
2022-09-11T10:07:54.964Z,98331.94
2022-09-11T10:10:34.928Z,98329.47
2022-09-11T10:13:18.954Z,98330.72
2022-09-11T10:15:49.319Z,98326.97
2022-09-11T10:18:37.533Z,98326.78
2022-09-11T10:21:13.054Z,98328.13
2022-09-11T10:23:50.482Z,98325.81
2022-09-11T10:26:23.327Z,98322.50
2022-09-11T10:28:50.594Z,98315.13
2022-09-11T10:31:18.513Z,98312.88
2022-09-11T10:33:56.527Z,98316.59
2022-09-11T10:36:25.758Z,98311.03
2022-09-11T10:38:52.933Z,98302.47
2022-09-11T10:41:23.090Z,98300.56
2022-09-11T10:44:11.093Z,98304.25
2022-09-11T10:46:42.929Z,98306.94
2022-09-11T10:49:21.145Z,98297.25
2022-09-11T10:52:06.567Z,98296.38
2022-09-11T10:55:00.030Z,98282.81
2022-09-11T10:57:52.110Z,98290.13
2022-09-11T11:00:25.069Z,98296.06
2022-09-11T11:02:57.707Z,98288.81
2022-09-11T11:05:44.797Z,98295.94
2022-09-11T11:08:31.287Z,98297.28
2022-09-11T11:11:04.034Z,98288.19
2022-09-11T11:13:56.728Z,98299.75
2022-09-11T11:16:33.312Z,98287.78
2022-09-11T11:19:15.312Z,98291.44
2022-09-11T11:21:43.717Z,98289.84
2022-09-11T11:24:35.650Z,98279.50
2022-09-11T11:27:27.579Z,98288.38
2022-09-11T11:30:12.694Z,98289.28
2022-09-11T11:33:04.207Z,98286.25
2022-09-11T11:35:34.386Z,98294.66
2022-09-11T11:38:10.034Z,98287.22
2022-09-11T11:40:46.433Z,98287.16
2022-09-11T11:43:17.361Z,98280.19
2022-09-11T11:46:10.728Z,98282.09
2022-09-11T11:48:57.258Z,98278.66
2022-09-11T11:51:32.345Z,98283.09
2022-09-11T11:54:09.869Z,98281.28
2022-09-11T11:56:56.492Z,98285.72
2022-09-11T11:59:43.696Z,98275.94
2022-09-11T12:02:10.267Z,98276.25
2022-09-11T12:04:57.933Z,98272.81
2022-09-11T12:07:26.562Z,98278.16
2022-09-11T12:09:55.679Z,98274.91
2022-09-11T12:12:24.359Z,98271.28
2022-09-11T12:15:05.077Z,98271.28
2022-09-11T12:17:33.863Z,98273.91
2022-09-11T12:20:09.739Z,98264.75
2022-09-11T12:22:45.031Z,98272.09
2022-09-11T12:25:23.520Z,98277.63
2022-09-11T12:28:22.346Z,98272.25
2022-09-11T12:30:58.577Z,98270.69
2022-09-11T12:33:44.172Z,98267.88
2022-09-11T12:36:13.159Z,98263.19
2022-09-11T12:38:48.882Z,98261.81
2022-09-11T12:41:25.315Z,98259.84
2022-09-11T12:43:53.627Z,98267.75
2022-09-11T12:46:27.979Z,98257.22
2022-09-11T12:49:20.219Z,98262.94
2022-09-11T12:51:52.079Z,98253.03
2022-09-11T12:54:30.335Z,98255.44
2022-09-11T12:57:07.150Z,98254.34
2022-09-11T12:59:41.078Z,98238.47
2022-09-11T13:02:26.126Z,98239.34
2022-09-11T13:04:53.906Z,98230.19
2022-09-11T13:07:30.585Z,98234.13
2022-09-11T13:10:06.675Z,98232.38
2022-09-11T13:12:49.869Z,98235.28
2022-09-11T13:15:35.718Z,98238.75
2022-09-11T13:18:29.903Z,98228.78
2022-09-11T13:21:01.628Z,98233.66
2022-09-11T13:23:29.099Z,98231.50
2022-09-11T13:25:58.240Z,98225.31
2022-09-11T13:28:27.986Z,98215.78
2022-09-11T13:31:02.799Z,98218.03
2022-09-11T13:33:32.088Z,98222.34
2022-09-11T13:36:02.719Z,98207.34
2022-09-11T13:38:37.428Z,98209.53
2022-09-11T13:41:07.454Z,98215.44
2022-09-11T13:43:44.474Z,98209.00
2022-09-11T13:46:16.928Z,98197.25
2022-09-11T13:48:44.889Z,98199.69
2022-09-11T13:51:14.488Z,98198.31
2022-09-11T13:53:43.746Z,98193.63
2022-09-11T13:56:20.937Z,98187.13
2022-09-11T13:58:52.896Z,98175.53
2022-09-11T14:01:20.224Z,98185.09
2022-09-11T14:03:49.028Z,98171.53
2022-09-11T14:06:19.006Z,98176.81
2022-09-11T14:08:51.738Z,98165.44
2022-09-11T14:11:26.118Z,98173.59
2022-09-11T14:14:01.031Z,98168.16
2022-09-11T14:16:34.032Z,98167.78
2022-09-11T14:19:13.255Z,98159.06
2022-09-11T14:21:46.582Z,98163.53
2022-09-11T14:24:29.384Z,98161.28
2022-09-11T14:26:59.227Z,98163.16
2022-09-11T14:29:28.511Z,98165.59
2022-09-11T14:32:32.454Z,98166.38
2022-09-11T14:35:01.106Z,98162.34
2022-09-11T14:37:30.122Z,98154.22
2022-09-11T14:40:00.233Z,98153.03
2022-09-11T14:42:29.669Z,98154.63
2022-09-11T14:44:56.268Z,98146.94
2022-09-11T14:47:25.684Z,98150.78
2022-09-11T14:49:53.939Z,98128.44
2022-09-11T14:52:24.039Z,98145.50
2022-09-11T14:54:51.404Z,98148.91
2022-09-11T14:57:30.636Z,98153.38
2022-09-11T14:59:59.246Z,98147.28
2022-09-11T15:02:28.082Z,98141.81
2022-09-11T15:04:57.514Z,98143.22
2022-09-11T15:07:25.103Z,98142.00
2022-09-11T15:09:53.771Z,98136.31
2022-09-11T15:12:21.201Z,98138.91
2022-09-11T15:14:58.092Z,98137.44
2022-09-11T15:17:25.594Z,98127.69
2022-09-11T15:19:53.482Z,98136.41
2022-09-11T15:22:20.657Z,98136.00
2022-09-11T15:24:49.664Z,98132.59
2022-09-11T15:27:17.232Z,98112.91
2022-09-11T15:29:43.860Z,98131.75
2022-09-11T15:32:11.318Z,98135.88
2022-09-11T15:34:39.910Z,98127.13
2022-09-11T15:37:06.441Z,98127.72
2022-09-11T15:39:33.959Z,98127.31
2022-09-11T15:42:01.912Z,98128.50
2022-09-11T15:44:29.060Z,98130.50
2022-09-11T15:46:57.857Z,98125.84
2022-09-11T15:49:24.684Z,98132.50
2022-09-11T15:51:53.826Z,98128.03
2022-09-11T15:54:23.170Z,98120.28
2022-09-11T15:56:50.772Z,98131.81
2022-09-11T15:59:17.624Z,98133.00
2022-09-11T16:01:44.901Z,98130.38
2022-09-11T16:04:14.222Z,98125.88
2022-09-11T16:06:42.983Z,98128.28
2022-09-11T16:09:13.978Z,98131.09
2022-09-11T16:11:40.963Z,98123.91
2022-09-11T16:14:08.806Z,98132.59
2022-09-11T16:16:35.710Z,98119.63
2022-09-11T16:19:02.269Z,98128.06
2022-09-11T16:21:28.987Z,98128.50
2022-09-11T16:24:00.602Z,98130.69
2022-09-11T16:26:31.209Z,98132.94
2022-09-11T16:28:57.984Z,98139.03
2022-09-11T16:31:24.583Z,98135.72
2022-09-11T16:33:51.288Z,98141.59
2022-09-11T16:36:20.846Z,98146.75
2022-09-11T16:38:50.084Z,98140.91
2022-09-11T16:41:19.470Z,98142.59
2022-09-11T16:43:50.534Z,98147.09
2022-09-11T16:46:19.949Z,98139.09
2022-09-11T16:48:50.584Z,98143.22
2022-09-11T16:51:20.788Z,98150.28
2022-09-11T16:53:47.625Z,98152.13
2022-09-11T16:56:20.224Z,98149.84
2022-09-11T16:58:47.866Z,98147.81
2022-09-11T17:01:17.271Z,98138.13
2022-09-11T17:03:46.268Z,98147.97
2022-09-11T17:06:14.527Z,98145.66
2022-09-11T17:08:42.453Z,98146.03
2022-09-11T17:11:13.796Z,98144.88
2022-09-11T17:13:41.838Z,98143.78
2022-09-11T17:16:19.019Z,98146.81
2022-09-11T17:18:51.095Z,98146.81
2022-09-11T17:21:17.666Z,98142.88
2022-09-11T17:23:44.279Z,98153.25
2022-09-11T17:26:13.981Z,98147.34
2022-09-11T17:28:42.322Z,98153.66
2022-09-11T17:31:10.967Z,98143.44
2022-09-11T17:33:38.454Z,98156.16
2022-09-11T17:36:05.901Z,98158.44
2022-09-11T17:38:32.962Z,98147.38
2022-09-11T17:41:04.064Z,98152.81
2022-09-11T17:43:32.715Z,98151.81
2022-09-11T17:46:05.558Z,98155.81
2022-09-11T17:48:32.443Z,98159.44
2022-09-11T17:51:26.081Z,98166.34
2022-09-11T17:53:56.265Z,98163.38
2022-09-11T17:56:28.128Z,98168.91
2022-09-11T17:58:56.726Z,98161.78
2022-09-11T18:01:25.256Z,98175.22
2022-09-11T18:03:57.081Z,98182.91
2022-09-11T18:06:33.843Z,98187.44
2022-09-11T18:09:02.940Z,98186.00
2022-09-11T18:11:30.112Z,98188.31
2022-09-11T18:13:57.115Z,98193.88
2022-09-11T18:16:23.734Z,98199.41
2022-09-11T18:18:50.407Z,98202.53
2022-09-11T18:21:17.181Z,98193.75
2022-09-11T18:23:45.136Z,98204.75
2022-09-11T18:26:33.805Z,98212.16
2022-09-11T18:29:05.754Z,98214.28
2022-09-11T18:31:37.037Z,98216.91
2022-09-11T18:34:03.768Z,98215.38
2022-09-11T18:36:31.077Z,98219.81
2022-09-11T18:39:01.065Z,98230.94
2022-09-11T18:41:29.433Z,98224.59
2022-09-11T18:43:59.932Z,98233.41
2022-09-11T18:46:27.413Z,98233.56
2022-09-11T18:48:55.795Z,98239.59
2022-09-11T18:51:22.698Z,98248.63
2022-09-11T18:53:51.920Z,98254.50
2022-09-11T18:56:20.306Z,98244.88
2022-09-11T18:58:49.140Z,98262.84
2022-09-11T19:01:18.678Z,98252.03
2022-09-11T19:03:45.410Z,98263.63
2022-09-11T19:06:15.401Z,98266.56
2022-09-11T19:08:46.844Z,98254.97
2022-09-11T19:11:16.574Z,98274.28
2022-09-11T19:13:44.845Z,98275.88
2022-09-11T19:16:12.244Z,98291.22
2022-09-11T19:18:39.256Z,98283.88
2022-09-11T19:21:10.080Z,98290.06
2022-09-11T19:23:39.748Z,98298.22
2022-09-11T19:26:08.074Z,98303.63
2022-09-11T19:28:35.566Z,98301.81
2022-09-11T19:31:03.078Z,98309.50
2022-09-11T19:33:31.159Z,98308.03
2022-09-11T19:36:02.008Z,98317.31
2022-09-11T19:38:30.583Z,98321.25
2022-09-11T19:41:00.300Z,98324.03
2022-09-11T19:43:31.170Z,98315.63
2022-09-11T19:46:04.775Z,98325.41
2022-09-11T19:48:32.920Z,98323.28
2022-09-11T19:51:01.765Z,98330.69
2022-09-11T19:53:28.562Z,98324.28
2022-09-11T19:55:55.358Z,98334.59
2022-09-11T19:58:24.151Z,98335.81
2022-09-11T20:00:51.896Z,98343.00
2022-09-11T20:03:19.011Z,98344.78
2022-09-11T20:05:45.941Z,98347.22
2022-09-11T20:08:16.088Z,98350.47
2022-09-11T20:10:45.581Z,98353.63
2022-09-11T20:13:12.919Z,98354.69
2022-09-11T20:15:40.392Z,98356.50
2022-09-11T20:18:07.821Z,98354.69
2022-09-11T20:20:40.285Z,98362.69
2022-09-11T20:23:10.950Z,98368.59
2022-09-11T20:25:38.146Z,98362.47
2022-09-11T20:28:05.295Z,98362.47
2022-09-11T20:30:32.685Z,98375.84
2022-09-11T20:33:00.626Z,98370.78
2022-09-11T20:35:27.326Z,98381.84
2022-09-11T20:37:54.264Z,98382.16
2022-09-11T20:40:20.764Z,98379.19
2022-09-11T20:42:47.462Z,98372.41
2022-09-11T20:45:14.171Z,98373.53
2022-09-11T20:47:40.810Z,98382.84
2022-09-11T20:50:08.725Z,98380.06
2022-09-11T20:52:39.296Z,98384.09
2022-09-11T20:55:07.269Z,98374.84
2022-09-11T20:57:33.761Z,98378.25
2022-09-11T21:00:00.695Z,98373.84
2022-09-11T21:02:27.821Z,98385.94
2022-09-11T21:04:54.472Z,98376.84
2022-09-11T21:07:21.041Z,98379.22
2022-09-11T21:09:47.818Z,98376.78
2022-09-11T21:12:14.314Z,98388.69
2022-09-11T21:14:42.997Z,98368.88
2022-09-11T21:17:09.486Z,98383.25
2022-09-11T21:19:36.136Z,98384.22
2022-09-11T21:22:02.702Z,98385.22
2022-09-11T21:24:29.280Z,98381.13
2022-09-11T21:26:55.953Z,98388.41
2022-09-11T21:29:22.739Z,98393.25
2022-09-11T21:31:49.302Z,98383.19
2022-09-11T21:34:15.957Z,98383.63
2022-09-11T21:36:43.231Z,98380.66
2022-09-11T21:39:09.915Z,98382.75
2022-09-11T21:41:36.501Z,98387.53
2022-09-11T21:44:03.967Z,98386.84
2022-09-11T21:46:30.526Z,98386.41
2022-09-11T21:48:57.081Z,98390.47
2022-09-11T21:51:23.657Z,98387.72
2022-09-11T21:53:58.076Z,98391.16
2022-09-11T21:56:31.107Z,98397.94
2022-09-11T21:58:59.225Z,98396.59
2022-09-11T22:01:27.163Z,98398.25
2022-09-11T22:03:54.682Z,98393.69
2022-09-11T22:06:24.387Z,98403.31
2022-09-11T22:08:51.770Z,98388.03
2022-09-11T22:11:18.369Z,98394.44
2022-09-11T22:13:47.593Z,98401.56
2022-09-11T22:16:18.121Z,98408.88
2022-09-11T22:18:49.232Z,98408.03
2022-09-11T22:21:16.190Z,98413.09
2022-09-11T22:23:42.723Z,98413.25
2022-09-11T22:26:18.842Z,98422.97
2022-09-11T22:28:46.003Z,98412.09
2022-09-11T22:31:21.290Z,98415.66
2022-09-11T22:33:47.797Z,98418.25
2022-09-11T22:36:17.283Z,98411.81
2022-09-11T22:38:43.896Z,98406.75
2022-09-11T22:41:10.439Z,98419.91
2022-09-11T22:43:38.034Z,98411.34
2022-09-11T22:46:05.358Z,98420.94
2022-09-11T22:48:32.445Z,98417.66
2022-09-11T22:50:59.446Z,98424.94
2022-09-11T22:53:28.113Z,98424.59
2022-09-11T22:55:55.103Z,98415.69
2022-09-11T22:58:23.682Z,98425.09
2022-09-11T23:00:53.862Z,98429.47
2022-09-11T23:03:20.564Z,98422.19
2022-09-11T23:06:06.062Z,98421.34
2022-09-11T23:08:39.145Z,98421.03
2022-09-11T23:11:06.514Z,98421.44
2022-09-11T23:13:34.133Z,98412.66
2022-09-11T23:16:00.974Z,98424.06
2022-09-11T23:18:27.789Z,98424.44
2022-09-11T23:20:55.940Z,98427.06
2022-09-11T23:23:23.204Z,98432.84
2022-09-11T23:25:49.853Z,98431.75
2022-09-11T23:28:16.520Z,98433.13
2022-09-11T23:30:43.588Z,98430.41
2022-09-11T23:33:10.181Z,98436.19
2022-09-11T23:35:39.292Z,98429.31
2022-09-11T23:38:07.378Z,98436.69
2022-09-11T23:40:34.878Z,98432.56
2022-09-11T23:43:02.078Z,98419.97
2022-09-11T23:45:29.268Z,98433.00
2022-09-11T23:47:55.853Z,98426.97
2022-09-11T23:50:22.513Z,98427.94
2022-09-11T23:52:49.017Z,98427.66
2022-09-11T23:55:17.426Z,98439.59
2022-09-11T23:57:44.014Z,98431.94
